Adona, AR

12:54 PM CST on February 08, 2016 (GMT -0600)
Petit Jean Mountain | | Change Station
CLOSE
Current Station
Personal Weather Station
Location: Morrilton, AR
Elevation: 1060 ft
Nearby Weather Stations
Active Advisory: Wind Advisory

Elev 1060 ft 35.15 °N, 92.94 °W | Updated 6 minutes ago

Overcast
Overcast
41.4 °F
Feels Like 38 °F
N
5.3
Wind Variable Wind from WNW

Today
High -- | Low -- °F
--% Chance of Precip.
Yesterday
High -- | Low -- °F
Precip. -- in
Pressure 30.05 in
Visibility 10.0 miles
Clouds Overcast 7000 ft
Windchill 38 °F
Dew Point 18 °F
Humidity 39%
Rainfall 0.00 in
Snow Depth Not available.
7:05 AM 5:46 PM
New Moon, 0% visible
METAR KRUE 081753Z AUTO 31019G25KT 10SM OVC070 07/M09 A3006 RMK AO2 PK WND 32034/1706 SLP176 T00671089 10072 20039 53001
Pressure 30.05 in
Visibility 10.0 miles
Clouds Overcast 7000 ft
Windchill 38 °F
Dew Point 18 °F
Humidity 39%
Rainfall 0.00 in
Snow Depth Not available.
7:05 AM 5:46 PM
New Moon, 0% visible
METAR KRUE 081753Z AUTO 31019G25KT 10SM OVC070 07/M09 A3006 RMK AO2 PK WND 32034/1706 SLP176 T00671089 10072 20039 53001

10-Day Weather Forecast

Almanac

Astronomy

Feb. 08, 2016 Rise Set
Actual Time
Civil Twilight
Nautical Twilight
Astronomical Twilight
Moon
Length of Visible Light
Length of Day
Tomorrow will be .
, % of the Moon is Illuminated

Today's Extremes

State Highs State Lows

Community

WunderPhotos

Upload Photos

1,891,481 photos uploaded!

WunderBlog® & News

Nearby

Air Quality

  Air Quality AQ Index Pollutant
Not available.

Snow Depth

Station Depth Elevation

Earthquake Activity

City Distance Mag. Time & Date
Minimum magnitude displayed is 2.5.

Coastal Water Temperatures

Place Temperature

Stations

Nearby Weather Stations

Station Location Temp. Windchill Dew Point Humidity Wind Precip. Elev Updated Type
                   

Watches & Warnings

Wind Advisory
Issued: 10:04 AM CST Feb. 8, 2016 – National Weather Service

... Wind Advisory remains in effect until 6 PM CST this evening...

* event... strong pressure gradients across the region will
result in strong northwest winds.

* Areas affected... this will affect much of Arkansas.

* Timing... the strongest winds will occur between 6 am and 6 PM
today.

* Winds... northwest winds of 20 to 30 mph with gusts up to 40
mph are expected.

* Impacts... a Wind Advisory means that sustained winds of 25 mph
or higher are expected. Winds this strong can make driving
difficult... especially for high profile vehicles.
Additionally... boaters should use extra caution today should
they decide to venture out on area lakes. Strong winds can
easily swamp or capsize small boats.

Precautionary/preparedness actions...

A Wind Advisory means that sustained winds of 25 mph or higher
are expected. Winds this strong can make driving difficult...
especially for high profile vehicles. Use extra caution.